createdAt,value
2018-03-18T00:01:44.105Z,68.60
2018-03-18T00:04:11.849Z,64.20
2018-03-18T00:06:39.662Z,67.80
2018-03-18T00:09:07.425Z,65.40
2018-03-18T00:11:35.941Z,67.80
2018-03-18T00:14:03.754Z,67.10
2018-03-18T00:16:31.503Z,64.30
2018-03-18T00:18:59.254Z,66.20
2018-03-18T00:21:27.061Z,65.20
2018-03-18T00:23:55.572Z,66.00
2018-03-18T00:26:23.322Z,65.70
2018-03-18T00:28:51.121Z,71.90
2018-03-18T00:31:18.872Z,65.10
2018-03-18T00:33:46.622Z,64.30
2018-03-18T00:36:14.422Z,67.20
2018-03-18T00:38:42.174Z,62.80
2018-03-18T00:41:09.947Z,66.10
2018-03-18T00:43:37.780Z,65.30
2018-03-18T00:46:05.522Z,63.10
2018-03-18T00:48:33.279Z,64.40
2018-03-18T00:51:01.091Z,61.10
2018-03-18T00:53:28.842Z,62.20
2018-03-18T00:55:56.591Z,61.90
2018-03-18T00:58:24.394Z,67.50
2018-03-18T01:00:52.154Z,63.70
2018-03-18T01:03:19.900Z,62.80
2018-03-18T01:05:47.702Z,64.60
2018-03-18T01:08:16.208Z,65.40
2018-03-18T01:10:43.956Z,65.30
2018-03-18T01:13:11.778Z,65.80
2018-03-18T01:15:39.533Z,60.60
2018-03-18T01:18:07.290Z,62.60
2018-03-18T01:20:35.089Z,60.70
2018-03-18T01:23:03.605Z,61.10
2018-03-18T01:25:32.190Z,59.90
2018-03-18T01:28:00.014Z,59.70
2018-03-18T01:30:28.521Z,61.80
2018-03-18T01:32:56.279Z,61.90
2018-03-18T01:35:24.083Z,59.30
2018-03-18T01:37:51.825Z,60.10
2018-03-18T01:40:19.574Z,62.60
2018-03-18T01:42:47.390Z,59.40
2018-03-18T01:45:15.917Z,60.40
2018-03-18T01:47:43.662Z,60.50
2018-03-18T01:50:11.465Z,59.00
2018-03-18T01:52:39.229Z,60.20
2018-03-18T01:55:06.977Z,57.90
2018-03-18T01:57:34.774Z,61.40
2018-03-18T02:00:02.522Z,63.70
2018-03-18T02:02:30.279Z,59.20
2018-03-18T02:04:58.080Z,58.00
2018-03-18T02:07:26.601Z,62.00
2018-03-18T02:09:54.351Z,61.90
2018-03-18T02:12:22.501Z,57.20
2018-03-18T02:14:50.243Z,58.40
2018-03-18T02:17:18.795Z,58.30
2018-03-18T02:19:46.607Z,58.30
2018-03-18T02:22:14.359Z,61.10
2018-03-18T02:24:42.107Z,58.00
2018-03-18T02:27:10.665Z,57.80
2018-03-18T02:29:38.422Z,58.40
2018-03-18T02:32:06.171Z,61.50
2018-03-18T02:34:33.985Z,60.70
2018-03-18T02:37:02.504Z,59.00
2018-03-18T02:39:30.254Z,59.00
2018-03-18T02:41:58.050Z,58.10
2018-03-18T02:44:25.804Z,62.00
2018-03-18T02:46:53.542Z,58.50
2018-03-18T02:49:21.341Z,58.70
2018-03-18T02:51:49.085Z,61.60
2018-03-18T02:54:16.830Z,55.10
2018-03-18T02:56:44.631Z,56.40
2018-03-18T02:59:12.382Z,56.50
2018-03-18T03:01:40.145Z,56.30
2018-03-18T03:04:07.954Z,55.30
2018-03-18T03:06:35.703Z,56.90
2018-03-18T03:09:04.228Z,55.70
2018-03-18T03:11:32.027Z,55.80
2018-03-18T03:13:59.774Z,55.90
2018-03-18T03:16:27.532Z,56.60
2018-03-18T03:18:55.335Z,57.80
2018-03-18T03:21:23.097Z,56.00
2018-03-18T03:23:51.609Z,58.80
2018-03-18T03:26:19.416Z,58.80
2018-03-18T03:28:47.171Z,58.80
2018-03-18T03:31:14.918Z,55.80
2018-03-18T03:33:42.716Z,55.70
2018-03-18T03:36:11.233Z,54.70
2018-03-18T03:38:38.974Z,54.60
2018-03-18T03:41:06.777Z,55.40
2018-03-18T03:43:34.517Z,56.90
2018-03-18T03:46:02.273Z,56.90
2018-03-18T03:48:30.072Z,57.10
2018-03-18T03:50:57.842Z,58.70
2018-03-18T03:53:25.599Z,58.70
2018-03-18T03:55:53.402Z,54.30
2018-03-18T03:58:21.141Z,57.60
2018-03-18T04:00:49.666Z,58.00
2018-03-18T04:03:17.460Z,57.70
2018-03-18T04:05:45.205Z,57.40
2018-03-18T04:08:12.964Z,55.60
2018-03-18T04:10:40.763Z,55.70
2018-03-18T04:13:08.516Z,58.30
2018-03-18T04:15:36.264Z,57.60
2018-03-18T04:18:04.057Z,57.50
2018-03-18T04:20:32.565Z,56.60
2018-03-18T04:23:00.310Z,56.50
2018-03-18T04:25:28.878Z,57.30
2018-03-18T04:27:57.384Z,60.80
2018-03-18T04:30:25.131Z,60.80
2018-03-18T04:32:53.690Z,57.40
2018-03-18T04:35:21.437Z,57.20
2018-03-18T04:37:49.188Z,61.50
2018-03-18T04:40:17.011Z,58.60
2018-03-18T04:42:44.758Z,57.10
2018-03-18T04:45:13.267Z,55.70
2018-03-18T04:47:41.074Z,55.70
2018-03-18T04:50:08.821Z,59.00
2018-03-18T04:52:36.587Z,58.30
2018-03-18T04:55:05.171Z,57.20
2018-03-18T04:57:32.915Z,56.50
2018-03-18T05:00:00.666Z,58.50
2018-03-18T05:02:28.518Z,55.80
2018-03-18T05:04:56.264Z,57.20
2018-03-18T05:07:24.029Z,57.90
2018-03-18T05:09:51.853Z,60.10
2018-03-18T05:12:19.610Z,58.50
2018-03-18T05:14:47.354Z,58.20
2018-03-18T05:17:15.153Z,56.90
2018-03-18T05:19:43.668Z,56.10
2018-03-18T05:22:11.419Z,56.00
2018-03-18T05:24:39.226Z,54.10
2018-03-18T05:27:06.977Z,55.20
2018-03-18T05:29:34.759Z,54.30
2018-03-18T05:32:02.590Z,54.00
2018-03-18T05:34:30.368Z,52.50
2018-03-18T05:36:58.112Z,55.60
2018-03-18T05:39:25.910Z,53.80
2018-03-18T05:41:53.653Z,48.90
2018-03-18T05:44:21.407Z,51.80
2018-03-18T05:46:49.209Z,50.00
2018-03-18T05:49:17.725Z,44.90
2018-03-18T05:51:45.469Z,44.90
2018-03-18T05:54:13.299Z,43.20
2018-03-18T05:56:41.046Z,40.20
2018-03-18T05:59:08.787Z,39.20
2018-03-18T06:01:36.593Z,39.80
2018-03-18T06:04:04.343Z,38.00
2018-03-18T06:06:32.903Z,39.00
2018-03-18T06:09:00.705Z,39.00
2018-03-18T06:11:29.213Z,40.40
2018-03-18T06:13:56.957Z,40.30
2018-03-18T06:16:25.538Z,36.80
2018-03-18T06:18:54.103Z,37.60
2018-03-18T06:21:22.617Z,33.60
2018-03-18T06:23:50.421Z,33.60
2018-03-18T06:26:18.181Z,38.00
2018-03-18T06:28:45.922Z,37.30
2018-03-18T06:31:13.722Z,35.90
2018-03-18T06:33:41.652Z,34.50
2018-03-18T06:36:09.408Z,36.60
2018-03-18T06:38:37.235Z,36.30
2018-03-18T06:41:05.750Z,38.80
2018-03-18T06:43:33.500Z,39.20
2018-03-18T06:46:01.305Z,38.00
2018-03-18T06:48:29.058Z,38.20
2018-03-18T06:50:56.801Z,38.00
2018-03-18T06:53:24.611Z,37.30
2018-03-18T06:55:53.125Z,34.00
2018-03-18T06:58:20.882Z,33.80
2018-03-18T07:00:48.688Z,33.20
2018-03-18T07:03:16.431Z,28.60
2018-03-18T07:05:44.190Z,30.10
2018-03-18T07:08:11.986Z,30.00
2018-03-18T07:10:39.731Z,31.60
2018-03-18T07:13:07.486Z,27.80
2018-03-18T07:15:35.290Z,27.90
2018-03-18T07:18:03.086Z,29.60
2018-03-18T07:20:30.833Z,27.80
2018-03-18T07:22:58.633Z,29.70
2018-03-18T07:25:26.406Z,33.10
2018-03-18T07:27:54.171Z,31.80
2018-03-18T07:30:21.978Z,29.50
2018-03-18T07:32:49.729Z,28.70
2018-03-18T07:35:17.480Z,29.30
2018-03-18T07:37:46.060Z,26.10
2018-03-18T07:40:13.803Z,25.70
2018-03-18T07:42:41.541Z,27.90
2018-03-18T07:45:09.341Z,29.60
2018-03-18T07:47:37.165Z,28.40
2018-03-18T07:50:04.901Z,31.50
2018-03-18T07:52:32.727Z,28.00
2018-03-18T07:55:01.251Z,26.40
2018-03-18T07:57:28.997Z,26.30
2018-03-18T07:59:56.796Z,27.70
2018-03-18T08:02:24.541Z,29.30
2018-03-18T08:04:52.288Z,29.20
2018-03-18T08:07:20.092Z,26.80
2018-03-18T08:09:48.609Z,29.40
2018-03-18T08:12:17.124Z,27.20
2018-03-18T08:14:44.915Z,27.70
2018-03-18T08:17:12.667Z,27.70
2018-03-18T08:19:40.417Z,30.40
2018-03-18T08:22:08.218Z,30.10
2018-03-18T08:24:35.963Z,28.30
2018-03-18T08:27:03.707Z,26.30
2018-03-18T08:29:31.503Z,26.60
2018-03-18T08:31:59.246Z,24.90
2018-03-18T08:34:27.059Z,26.70
2018-03-18T08:36:54.886Z,25.00
2018-03-18T08:39:22.644Z,23.70
2018-03-18T08:41:50.505Z,24.60
2018-03-18T08:44:18.306Z,26.60
2018-03-18T08:46:46.840Z,24.30
2018-03-18T08:49:14.733Z,24.20
2018-03-18T08:51:43.568Z,26.40
2018-03-18T08:54:12.134Z,26.70
2018-03-18T08:56:39.879Z,26.30
2018-03-18T08:59:07.689Z,27.40
2018-03-18T09:01:35.567Z,25.30
2018-03-18T09:04:03.333Z,29.20
2018-03-18T09:06:31.134Z,26.20
2018-03-18T09:08:59.651Z,27.50
2018-03-18T09:11:28.510Z,28.00
2018-03-18T09:13:56.320Z,25.20
2018-03-18T09:16:24.067Z,25.80
2018-03-18T09:18:51.862Z,25.50
2018-03-18T09:21:21.866Z,28.20
2018-03-18T09:23:49.627Z,25.90
2018-03-18T09:26:17.378Z,25.60
2018-03-18T09:28:45.887Z,28.40
2018-03-18T09:31:14.413Z,29.30
2018-03-18T09:33:42.172Z,29.20
2018-03-18T09:36:10.006Z,30.20
2018-03-18T09:38:37.767Z,33.20
2018-03-18T09:41:05.574Z,33.40
2018-03-18T09:43:33.462Z,32.20
2018-03-18T09:46:01.232Z,34.80
2018-03-18T09:48:29.008Z,36.40
2018-03-18T09:50:57.586Z,31.90
2018-03-18T09:53:27.156Z,32.00
2018-03-18T09:55:54.915Z,32.10
2018-03-18T09:58:23.009Z,37.40
2018-03-18T10:00:51.542Z,37.90
2018-03-18T10:03:19.293Z,37.90
2018-03-18T10:05:47.100Z,35.60
2018-03-18T10:08:14.867Z,36.10
2018-03-18T10:10:42.635Z,33.10
2018-03-18T10:13:10.444Z,32.80
2018-03-18T10:15:39.040Z,33.80
2018-03-18T10:18:06.798Z,32.40
2018-03-18T10:20:34.767Z,34.20
2018-03-18T10:23:02.950Z,36.40
2018-03-18T10:25:31.465Z,32.70
2018-03-18T10:27:59.267Z,32.50
2018-03-18T10:30:27.015Z,31.40
2018-03-18T10:32:54.774Z,34.00
2018-03-18T10:35:22.574Z,34.00
2018-03-18T10:37:50.327Z,32.60
2018-03-18T10:40:18.081Z,32.80
2018-03-18T10:42:45.924Z,35.50
2018-03-18T10:45:13.691Z,36.30
2018-03-18T10:47:41.463Z,31.50
2018-03-18T10:50:09.274Z,32.10
2018-03-18T10:52:37.025Z,33.00
2018-03-18T10:55:04.771Z,33.20
2018-03-18T10:57:32.569Z,32.30
2018-03-18T11:00:00.329Z,34.50
2018-03-18T11:02:28.088Z,34.60
2018-03-18T11:04:55.882Z,32.00
2018-03-18T11:07:24.594Z,32.10
2018-03-18T11:09:53.827Z,30.60
2018-03-18T11:12:21.631Z,30.90
2018-03-18T11:14:49.418Z,32.00
2018-03-18T11:17:17.167Z,32.40
2018-03-18T11:19:44.997Z,35.60
2018-03-18T11:22:13.515Z,35.80
2018-03-18T11:24:41.262Z,35.90
2018-03-18T11:27:09.066Z,34.20
2018-03-18T11:29:36.834Z,34.50
2018-03-18T11:32:04.617Z,33.80
2018-03-18T11:34:33.201Z,29.80
2018-03-18T11:37:01.721Z,31.50
2018-03-18T11:39:29.483Z,31.50
2018-03-18T11:41:57.296Z,32.80
2018-03-18T11:44:25.058Z,33.80
2018-03-18T11:46:52.813Z,30.30
2018-03-18T11:49:20.632Z,31.70
2018-03-18T11:51:48.382Z,29.40
2018-03-18T11:54:16.135Z,29.40
2018-03-18T11:56:43.946Z,32.90
2018-03-18T11:59:12.450Z,30.20
2018-03-18T12:01:40.961Z,31.90
2018-03-18T12:04:08.766Z,31.20
2018-03-18T12:06:36.515Z,30.90
2018-03-18T12:09:04.275Z,31.10
2018-03-18T12:11:32.081Z,32.90
2018-03-18T12:14:00.605Z,30.60
2018-03-18T12:16:28.371Z,31.20
2018-03-18T12:18:56.169Z,31.30
2018-03-18T12:21:23.929Z,31.00
2018-03-18T12:23:51.671Z,31.50
2018-03-18T12:26:20.250Z,35.00
2018-03-18T12:28:48.048Z,34.90
2018-03-18T12:31:16.259Z,32.90
2018-03-18T12:33:45.132Z,31.70
2018-03-18T12:36:12.944Z,31.70
2018-03-18T12:38:40.693Z,31.30
2018-03-18T12:41:08.495Z,34.60
2018-03-18T12:43:37.010Z,32.70
2018-03-18T12:46:04.765Z,31.90
2018-03-18T12:48:32.604Z,35.00
2018-03-18T12:51:01.130Z,32.10
2018-03-18T12:53:28.902Z,32.10
2018-03-18T12:55:56.701Z,30.00
2018-03-18T12:58:24.451Z,32.10
2018-03-18T13:00:52.249Z,32.30
2018-03-18T13:03:20.053Z,30.70
2018-03-18T13:05:47.950Z,30.40
2018-03-18T13:08:15.738Z,30.00
2018-03-18T13:10:43.543Z,29.70
2018-03-18T13:13:11.293Z,29.80
2018-03-18T13:15:39.041Z,30.40
2018-03-18T13:18:06.848Z,30.00
2018-03-18T13:20:34.604Z,30.30
2018-03-18T13:23:02.372Z,28.90
2018-03-18T13:25:30.177Z,29.60
2018-03-18T13:27:57.942Z,31.00
2018-03-18T13:30:25.693Z,30.50
2018-03-18T13:32:54.447Z,31.60
2018-03-18T13:35:23.156Z,30.70
2018-03-18T13:37:50.992Z,31.20
2018-03-18T13:40:19.740Z,29.90
2018-03-18T13:42:47.687Z,30.20
2018-03-18T13:45:15.903Z,31.90
2018-03-18T13:47:45.198Z,31.10
2018-03-18T13:50:13.249Z,31.70
2018-03-18T13:52:41.901Z,32.80
2018-03-18T13:55:09.718Z,29.30
2018-03-18T13:57:37.525Z,29.20
2018-03-18T14:00:05.400Z,28.90
2018-03-18T14:02:33.249Z,29.40
2018-03-18T14:05:01.779Z,32.30
2018-03-18T14:07:29.526Z,31.00
2018-03-18T14:09:57.353Z,30.30
2018-03-18T14:12:25.099Z,29.40
2018-03-18T14:14:53.610Z,29.30
2018-03-18T14:17:21.414Z,29.20
2018-03-18T14:19:49.174Z,30.10
2018-03-18T14:22:16.918Z,29.40
2018-03-18T14:24:44.721Z,29.80
2018-03-18T14:27:12.471Z,29.80
2018-03-18T14:29:40.234Z,32.60
2018-03-18T14:32:08.032Z,31.90
2018-03-18T14:34:35.800Z,30.80
2018-03-18T14:37:03.544Z,30.30
2018-03-18T14:39:32.120Z,31.60
2018-03-18T14:42:00.651Z,31.50
2018-03-18T14:44:28.398Z,31.60
2018-03-18T14:46:56.238Z,30.40
2018-03-18T14:49:23.980Z,30.00
2018-03-18T14:51:52.506Z,30.00
2018-03-18T14:54:20.308Z,30.00
2018-03-18T14:56:48.347Z,34.00
2018-03-18T14:59:16.917Z,28.60
2018-03-18T15:01:44.724Z,30.00
2018-03-18T15:04:12.471Z,30.00
2018-03-18T15:06:40.230Z,30.50
2018-03-18T15:09:08.037Z,29.70
2018-03-18T15:11:35.786Z,30.90
2018-03-18T15:14:04.782Z,30.70
2018-03-18T15:16:33.362Z,33.20
2018-03-18T15:19:01.875Z,30.50
2018-03-18T15:21:29.648Z,30.40
2018-03-18T15:23:57.457Z,30.00
2018-03-18T15:26:25.978Z,28.40
2018-03-18T15:28:53.726Z,28.30
2018-03-18T15:31:21.522Z,29.90
2018-03-18T15:33:49.274Z,30.30
2018-03-18T15:36:17.031Z,32.50
2018-03-18T15:38:44.861Z,30.10
2018-03-18T15:41:13.469Z,30.60
2018-03-18T15:43:41.214Z,30.20
2018-03-18T15:46:09.022Z,31.00
2018-03-18T15:48:36.787Z,31.70
2018-03-18T15:51:04.596Z,30.30
2018-03-18T15:53:32.922Z,29.90
2018-03-18T15:56:00.798Z,32.30
2018-03-18T15:58:28.752Z,32.40
2018-03-18T16:00:56.575Z,31.10
2018-03-18T16:03:24.333Z,31.70
2018-03-18T16:05:52.194Z,31.00
2018-03-18T16:08:20.005Z,30.20
2018-03-18T16:10:47.885Z,32.10
2018-03-18T16:13:15.701Z,32.60
2018-03-18T16:15:43.537Z,30.60
2018-03-18T16:18:11.436Z,33.10
2018-03-18T16:23:21.809Z,31.90
2018-03-18T16:25:49.682Z,31.50
2018-03-18T16:28:17.642Z,30.90
2018-03-18T16:30:58.027Z,33.50
2018-03-18T16:33:25.864Z,33.40
2018-03-18T16:35:53.620Z,32.70
2018-03-18T16:38:21.437Z,31.30
2018-03-18T16:40:50.137Z,32.80
2018-03-18T16:43:17.902Z,32.60
2018-03-18T16:45:45.718Z,33.50
2018-03-18T16:48:13.528Z,31.90
2018-03-18T16:50:41.303Z,32.10
2018-03-18T16:53:09.265Z,34.10
2018-03-18T16:55:37.038Z,31.30
2018-03-18T16:58:04.842Z,33.20
2018-03-18T17:00:32.673Z,31.80
2018-03-18T17:03:00.445Z,32.00
2018-03-18T17:05:28.263Z,32.10
2018-03-18T17:07:56.105Z,33.40
2018-03-18T17:10:24.639Z,32.50
2018-03-18T17:12:52.435Z,32.50
2018-03-18T17:15:20.304Z,32.20
2018-03-18T17:17:48.062Z,33.40
2018-03-18T17:20:15.810Z,34.20
2018-03-18T17:22:44.388Z,33.60
2018-03-18T17:25:12.159Z,33.70
2018-03-18T17:27:39.922Z,35.80
2018-03-18T17:30:07.755Z,34.30
2018-03-18T17:32:36.551Z,32.90
2018-03-18T17:35:04.414Z,33.40
2018-03-18T17:37:32.271Z,35.10
2018-03-18T17:40:00.031Z,33.80
2018-03-18T17:42:27.802Z,33.30
2018-03-18T17:45:08.087Z,34.00
2018-03-18T17:47:47.562Z,33.90
2018-03-18T17:50:27.351Z,33.90
2018-03-18T17:53:06.910Z,33.70
2018-03-18T17:55:34.713Z,32.80
2018-03-18T17:58:02.514Z,33.20
2018-03-18T18:00:30.365Z,34.10
2018-03-18T18:02:58.379Z,32.30
2018-03-18T18:05:26.916Z,33.00
2018-03-18T18:07:54.668Z,33.00
2018-03-18T18:10:22.499Z,33.00
2018-03-18T18:12:50.448Z,33.30
2018-03-18T18:15:18.972Z,33.30
2018-03-18T18:17:46.787Z,33.20
2018-03-18T18:20:15.309Z,32.70
2018-03-18T18:22:43.072Z,32.70
2018-03-18T18:25:10.879Z,35.60
2018-03-18T18:27:43.334Z,35.60
2018-03-18T18:30:13.228Z,34.50
2018-03-18T18:32:41.211Z,36.10
2018-03-18T18:35:08.976Z,34.40
2018-03-18T18:37:36.789Z,35.30
2018-03-18T18:40:04.617Z,34.40
2018-03-18T18:42:32.371Z,34.20
2018-03-18T18:45:00.225Z,36.50
2018-03-18T18:47:27.984Z,34.00
2018-03-18T18:49:55.767Z,33.90
2018-03-18T18:52:23.673Z,34.50
2018-03-18T18:54:51.430Z,35.10
2018-03-18T18:57:19.196Z,35.70
2018-03-18T18:59:47.012Z,34.80
2018-03-18T19:02:14.780Z,35.30
2018-03-18T19:04:47.052Z,35.80
2018-03-18T19:27:04.007Z,35.40
2018-03-18T19:41:16.633Z,35.30
2018-03-18T19:53:11.387Z,36.20
2018-03-18T20:10:37.070Z,36.80
2018-03-18T20:30:20.532Z,36.90
2018-03-18T20:32:52.674Z,37.70
2018-03-18T20:46:50.149Z,38.90
2018-03-18T20:49:34.367Z,36.80
2018-03-18T20:55:00.553Z,37.10
2018-03-18T21:00:29.424Z,38.60
2018-03-18T21:05:55.667Z,38.10
2018-03-18T21:08:50.180Z,38.30
2018-03-18T21:14:15.331Z,38.10
2018-03-18T21:30:48.242Z,38.10
2018-03-18T21:36:18.913Z,38.70
2018-03-18T21:38:49.512Z,39.10
2018-03-18T21:41:32.009Z,39.70
2018-03-18T21:44:08.024Z,39.60
2018-03-18T21:46:47.315Z,37.40
2018-03-18T21:52:15.021Z,38.10
2018-03-18T21:57:28.399Z,36.80
2018-03-18T22:02:49.704Z,38.30
2018-03-18T22:05:31.480Z,38.30
2018-03-18T22:08:08.024Z,39.80
2018-03-18T22:10:43.096Z,39.10
2018-03-18T22:13:17.498Z,40.10
2018-03-18T22:15:53.832Z,38.70
2018-03-18T22:21:09.167Z,38.50
2018-03-18T22:28:58.400Z,39.90
2018-03-18T22:31:31.942Z,39.20
2018-03-18T22:34:05.097Z,40.00
2018-03-18T22:36:37.350Z,40.00
2018-03-18T22:39:08.756Z,38.60
2018-03-18T22:41:39.516Z,38.20
2018-03-18T22:44:12.727Z,39.40
2018-03-18T22:46:46.686Z,38.50
2018-03-18T22:49:20.131Z,39.70
2018-03-18T22:51:49.338Z,39.60
2018-03-18T22:54:17.774Z,39.40
2018-03-18T22:56:47.876Z,39.80
2018-03-18T22:59:23.010Z,39.50
2018-03-18T23:01:52.088Z,40.10
2018-03-18T23:04:25.891Z,39.40
2018-03-18T23:06:57.746Z,39.10
2018-03-18T23:09:30.713Z,39.90
2018-03-18T23:11:59.684Z,39.90
2018-03-18T23:14:31.559Z,39.80
2018-03-18T23:17:01.973Z,40.50
2018-03-18T23:19:32.410Z,40.50
2018-03-18T23:22:02.947Z,40.80
2018-03-18T23:24:34.553Z,42.40
2018-03-18T23:27:06.991Z,41.30
2018-03-18T23:29:36.788Z,40.30
2018-03-18T23:32:09.534Z,40.30
2018-03-18T23:34:39.685Z,40.80
2018-03-18T23:37:12.887Z,41.30
2018-03-18T23:39:44.156Z,40.20
2018-03-18T23:42:15.345Z,40.10
2018-03-18T23:44:46.407Z,40.70
2018-03-18T23:47:19.265Z,40.70
2018-03-18T23:49:51.192Z,40.50
2018-03-18T23:52:24.439Z,42.90
2018-03-18T23:55:03.678Z,42.80
2018-03-18T23:57:45.207Z,43.20
